Airfield :
LOGIN :

Register | Disclaimer

   EN    FR    IT 

 










Legend :    VFR   Marginal VFR   IFR   Intensive IFR   Very Intensive IFR
Visi :
Ceiling :
>= 8 km
>= 3000ft
5 to 8 km
1000 to 3000 ft
1500m to 5 km
500 to 1000 ft
800 to 1500m
200 to 500 ft
< 800m
< 200 ft
Symbols :   Thunderstorms  Fog  Heavy snow  Heavy precipitations  Wind > 20 kt
SIGMETs :     Misc.  Thunderstorms  Icing  Turbulence  Mountain Waves  Volcanic Ashes







- Airport Elevation : 1197 ft
- IATA code : SPM


ETAD - Spangdahlem Ab

CURRENT METAR :
  • 190522Z AUTO 05012KT 9999 BKN013 OVC019 01/M02 A3003 RMK AO2 CIG 013V018 SLP175 $

EXPIRED METARs :
  • 190456Z AUTO 05011KT 9999 OVC018 01/M02 A3004 RMK AO2 CIG 017 RWY23 SLP178 T00131018 $
  • 190356Z AUTO 05010G17KT 9999 OVC015 01/M02 A3005 RMK AO2 SLP181 T00091023 $
  • 190256Z AUTO 07011KT 9999 OVC016 00/M03 A3006 RMK AO2 SLP185 T00031027 57015 $

TAF AMD TAF ETAD
Valid from the 19 at 05:00 until the 20 at 11:00 UTC


190545Z 1905/2011 05012G20KT 9999 BKN013 OVC018 620204 QNH2999INS
TEMPO 1906/1908 OVC018
BECMG 1908/1909 05015G25KT 9999 BKN020 BKN050 620207 QNH2985INS
TEMPO 1910/1914 6000 -SHSN OVC015
BECMG 1918/1919 05012G18KT 9999 BKN030 620303 QNH2977INS
BECMG 2001/2002 03008KT 9999 SCT035 QNH2968INS
BECMG 2008/2009 07012G18KT 9999 SCT030 QNH2967INS TX03/1912Z TN00/2003Z
No reported NOTAMs for that airfield.
1 SIGMET reported for the Langen FIR (EDGG) :
 
Severe icing
EDGG SIGMET 1 VALID 190330/190600 EDZF
EDGG LANGEN FIR SEV ICE FCST WI N5121 E01030 - N5041 E01042 - N5015 E01018 - N5015 E00845 - N5120 E00848 - N5121 E01030 1500FT/5000FT MOV W 05KT NC=



MET'MAP, your aeronautical weather chart ! - Copyright ORBIFLY December 2007 - Disclaimer

ORBIFLY MET'MAP TEAM :

Programming & Development : Alexandra Zaïnal
Concept & Development : Baudouin d'Aumeries
Co-Development & Prog : Marc-Olivier Méhu
Technical & hardware support : Manuel Goepfert

Contact : metmap@orbifly.com




SOURCES & CREDITS :

   NOAA